ATC SCHEDULE

ATC (0): Portugal vACC
No ATC scheduled

PHP Error Message

Warning: copy() [function.copy]: open_basedir restriction in effect. File() is not within the allowed path(s): (/home/:/usr/lib/php:/tmp) in /home/a2638354/public_html/LPPO/stats/VatsimPHPgenerator.php on line 62


PHP Error Message

Warning: copy(?id=all) [function.copy]: failed to open stream: No such file or directory in /home/a2638354/public_html/LPPO/stats/VatsimPHPgenerator.php on line 66

ONLINE CONTROLLERS

Callsign Freq.
Not Staffed at Present Time

FLIGHT BOARD ARRIVALS

Flight number Arr.Dep. from
No Traffic at Present Time

FLIGHT BOARD DEPARTURES

Flight number Dep. fromDest.
No Traffic at Present Time

TRAFFIC SCHEDULE

No Flights scheduled

LIVE ATC


Banner
Santa Maria Control: 132.150
Santa Maria Approach: 119.100
P. Delgada Approach: 119.400
Lajes Approach: 135.000
Lajes Tower: 122.100

PORTUGAL VACC LOGIN

JOIN PORTUGAL vACC


Banner
Join Portugal vACC as Air Traffic Controller and be part of our team


Banner
Join Portugal vACC as a pilot

QUICK LINKS


Banner
Banner
Banner

GET SOCIAL

Welcome

Welcome Santa Maria FIR here you will find information regarding virtual flying in Santa Maria Oceanic Fir.

Portugal VACC provides Virtual Air Traffic Control to Santa Maria Oceanic on the VATSIM network. All you need to know about virtual flying in Santa Maria Oceanic Fir can be found on this site.

Santa Maria Fir is well known for true real life procedures of Air Traffic Control and for our excellent virtual ATC skills. Our mission is to provide a realistic Air Traffic Control service all over Portuguese air space, and make the virtual pilot's experience to be as real as it gets while they fly in Portuguese air space through the VATSIM network.

 

vACC Chart Center

fireevent

Pilots and controllers are encouraged to access our chart center with chart information for all LPPC main airports. Visit this new tool which is essential for a better experience at our airports.

Briefing Room

fireevent

Briefing Room is a online platform where pilots can plan a flight or create a flight plan. Routes, Charts, Weather information can be found here. Enjoy our Briefing Room

Latest Metars

Santa Maria LPAZ 192030Z 04011KT 010V080 9999 FEW020 BKN025 14/09 Q1032
Ponta Delgada LPPD 192030Z 03006KT 360V070 9999 FEW020 BKN030 14/09 Q1032
Lajes LPLA 192000Z 00000KT 9999 BKN023 14/10 Q1033
Horta LPHR 192030Z 13006KT 9999 OVC025 15/10 Q1032
Flores LPFL 191800Z 17012KT 9999 FEW019 BKN030 16/14 Q1030

News

Welcome to our new website This new version is more intuitive and with new functionalities such as Briefing Room. Hope you enjoy exploring our new site.

Notam

NO NOTAMS (0)
08-29-2012


See All →

Webmaster